createdAt,value
2022-10-18T00:01:45.334Z,15.00
2022-10-18T00:04:15.618Z,14.90
2022-10-18T00:06:43.978Z,15.00
2022-10-18T00:09:14.674Z,15.00
2022-10-18T00:11:43.382Z,15.10
2022-10-18T00:14:14.705Z,15.10
2022-10-18T00:16:44.111Z,15.00
2022-10-18T00:19:12.565Z,15.00
2022-10-18T00:21:41.440Z,15.00
2022-10-18T00:24:09.965Z,14.90
2022-10-18T00:26:39.952Z,14.90
2022-10-18T00:29:08.377Z,14.90
2022-10-18T00:31:38.787Z,15.00
2022-10-18T00:34:09.049Z,15.00
2022-10-18T00:36:37.687Z,14.90
2022-10-18T00:39:07.725Z,14.90
2022-10-18T00:41:38.324Z,14.90
2022-10-18T00:44:29.326Z,15.00
2022-10-18T00:47:03.061Z,15.00
2022-10-18T00:49:35.249Z,15.00
2022-10-18T00:52:07.561Z,15.00
2022-10-18T00:54:41.900Z,15.00
2022-10-18T00:57:13.004Z,15.00
2022-10-18T00:59:44.194Z,15.00
2022-10-18T01:02:15.030Z,14.90
2022-10-18T01:04:43.498Z,15.00
2022-10-18T01:07:21.863Z,14.90
2022-10-18T01:09:59.069Z,14.90
2022-10-18T01:12:35.543Z,14.90
2022-10-18T01:15:12.181Z,14.90
2022-10-18T01:17:51.826Z,14.90
2022-10-18T01:20:44.741Z,14.80
2022-10-18T01:23:23.153Z,14.90
2022-10-18T01:25:58.318Z,14.80
2022-10-18T01:28:44.705Z,14.90
2022-10-18T01:31:20.554Z,15.10
2022-10-18T01:33:53.166Z,15.30
2022-10-18T01:36:26.026Z,15.20
2022-10-18T01:38:56.902Z,15.10
2022-10-18T01:41:26.530Z,15.10
2022-10-18T01:43:58.702Z,15.00
2022-10-18T01:46:30.611Z,15.00
2022-10-18T01:48:59.950Z,15.00
2022-10-18T01:51:30.493Z,15.00
2022-10-18T01:54:02.154Z,15.00
2022-10-18T01:56:41.562Z,15.00
2022-10-18T01:59:26.105Z,15.00
2022-10-18T02:02:04.079Z,15.00
2022-10-18T02:04:42.011Z,15.00
2022-10-18T02:07:18.897Z,15.10
2022-10-18T02:09:54.637Z,15.10
2022-10-18T02:12:26.850Z,15.10
2022-10-18T02:14:55.551Z,15.10
2022-10-18T02:17:29.681Z,15.10
2022-10-18T02:20:01.032Z,15.10
2022-10-18T02:22:33.976Z,15.10
2022-10-18T02:25:10.369Z,15.10
2022-10-18T02:27:39.626Z,15.00
2022-10-18T02:30:09.596Z,15.10
2022-10-18T02:32:42.287Z,15.30
2022-10-18T02:35:16.809Z,15.30
2022-10-18T02:37:48.541Z,15.20
2022-10-18T02:40:18.009Z,15.20
2022-10-18T02:42:48.330Z,15.10
2022-10-18T02:45:17.781Z,15.10
2022-10-18T02:47:47.904Z,15.10
2022-10-18T02:50:18.867Z,15.10
2022-10-18T02:52:47.288Z,15.10
2022-10-18T02:55:16.083Z,15.10
2022-10-18T02:57:46.111Z,15.10
2022-10-18T03:00:15.568Z,15.10
2022-10-18T03:02:43.901Z,15.10
2022-10-18T03:05:16.718Z,15.10
2022-10-18T03:07:45.645Z,15.10
2022-10-18T03:10:13.893Z,15.10
2022-10-18T03:12:44.794Z,15.10
2022-10-18T03:15:13.385Z,15.10
2022-10-18T03:17:41.973Z,15.10
2022-10-18T03:20:11.329Z,15.10
2022-10-18T03:22:41.111Z,15.10
2022-10-18T03:25:09.849Z,15.20
2022-10-18T03:27:41.167Z,15.20
2022-10-18T03:30:11.781Z,15.30
2022-10-18T03:32:42.857Z,15.40
2022-10-18T03:35:14.702Z,15.30
2022-10-18T03:37:44.690Z,15.20
2022-10-18T03:40:13.555Z,15.20
2022-10-18T03:42:41.912Z,15.20
2022-10-18T03:45:11.077Z,15.10
2022-10-18T03:47:40.486Z,15.10
2022-10-18T03:50:09.732Z,15.10
2022-10-18T03:52:38.063Z,15.10
2022-10-18T03:55:10.262Z,15.10
2022-10-18T03:57:38.907Z,15.10
2022-10-18T04:00:09.024Z,15.10
2022-10-18T04:03:01.957Z,15.00
2022-10-18T04:05:31.512Z,15.00
2022-10-18T04:08:00.125Z,15.10
2022-10-18T04:10:30.638Z,15.10
2022-10-18T04:12:58.954Z,15.10
2022-10-18T04:15:30.849Z,15.10
2022-10-18T04:18:01.299Z,15.10
2022-10-18T04:20:30.377Z,15.10
2022-10-18T04:22:59.156Z,15.10
2022-10-18T04:25:28.844Z,15.10
2022-10-18T04:27:58.926Z,15.30
2022-10-18T04:30:27.956Z,15.30
2022-10-18T04:32:56.898Z,15.50
2022-10-18T04:35:26.194Z,15.50
2022-10-18T04:37:54.790Z,15.40
2022-10-18T04:40:23.234Z,15.30
2022-10-18T04:42:54.095Z,15.20
2022-10-18T04:45:24.070Z,15.20
2022-10-18T04:47:54.798Z,15.20
2022-10-18T04:50:23.056Z,15.20
2022-10-18T04:52:56.378Z,15.20
2022-10-18T04:55:24.877Z,15.30
2022-10-18T04:57:54.350Z,15.40
2022-10-18T05:00:24.370Z,15.40
2022-10-18T05:02:58.110Z,15.30
2022-10-18T05:05:43.286Z,15.40
2022-10-18T05:08:16.173Z,15.30
2022-10-18T05:10:44.518Z,15.40
2022-10-18T05:13:13.424Z,15.40
2022-10-18T05:15:44.245Z,15.50
2022-10-18T05:18:12.778Z,15.70
2022-10-18T05:20:41.726Z,15.70
2022-10-18T05:23:11.295Z,15.60
2022-10-18T05:25:43.742Z,15.60
2022-10-18T05:28:34.421Z,15.50
2022-10-18T05:31:04.462Z,15.50
2022-10-18T05:33:33.601Z,15.40
2022-10-18T05:36:02.374Z,15.40
2022-10-18T05:38:31.593Z,15.30
2022-10-18T05:41:00.509Z,15.60
2022-10-18T05:43:29.814Z,15.70
2022-10-18T05:45:58.551Z,15.50
2022-10-18T05:48:28.455Z,15.60
2022-10-18T05:50:59.401Z,15.50
2022-10-18T05:53:43.445Z,15.30
2022-10-18T05:56:13.086Z,15.30
2022-10-18T05:58:43.581Z,15.30
2022-10-18T06:01:12.521Z,15.20
2022-10-18T06:03:42.379Z,15.20
2022-10-18T06:06:12.385Z,15.20
2022-10-18T06:08:42.010Z,15.20
2022-10-18T06:11:11.540Z,15.20
2022-10-18T06:13:43.594Z,15.50
2022-10-18T06:16:13.100Z,15.50
2022-10-18T06:18:43.122Z,15.50
2022-10-18T06:21:12.113Z,15.40
2022-10-18T06:23:40.629Z,15.40
2022-10-18T06:26:12.088Z,15.60
2022-10-18T06:28:40.545Z,15.70
2022-10-18T06:31:09.249Z,15.80
2022-10-18T06:33:38.312Z,15.80
2022-10-18T06:36:11.745Z,15.80
2022-10-18T06:38:40.401Z,15.80
2022-10-18T06:41:09.263Z,15.80
2022-10-18T06:43:38.486Z,15.80
2022-10-18T06:46:08.835Z,15.70
2022-10-18T06:48:41.331Z,15.60
2022-10-18T06:51:12.566Z,15.50
2022-10-18T06:53:44.475Z,15.50
2022-10-18T06:56:21.901Z,15.50
2022-10-18T06:58:50.461Z,15.50
2022-10-18T07:01:20.065Z,15.60
2022-10-18T07:03:50.607Z,15.70
2022-10-18T07:06:21.458Z,15.90
2022-10-18T07:08:51.169Z,15.90
2022-10-18T07:11:21.420Z,16.00
2022-10-18T07:13:50.020Z,16.00
2022-10-18T07:16:20.311Z,16.10
2022-10-18T07:18:50.729Z,16.20
2022-10-18T07:21:22.382Z,16.20
2022-10-18T07:23:51.973Z,16.30
2022-10-18T07:26:24.138Z,16.20
2022-10-18T07:28:58.109Z,16.20
2022-10-18T07:31:27.389Z,16.20
2022-10-18T07:33:55.977Z,16.20
2022-10-18T07:36:26.059Z,16.20
2022-10-18T07:38:55.126Z,16.30
2022-10-18T07:41:23.726Z,16.50
2022-10-18T07:43:53.851Z,16.70
2022-10-18T07:46:23.643Z,16.90
2022-10-18T07:48:52.945Z,16.90
2022-10-18T07:51:22.704Z,17.00
2022-10-18T07:53:53.015Z,17.10
2022-10-18T07:56:23.025Z,17.10
2022-10-18T07:58:53.195Z,17.10
2022-10-18T08:01:22.761Z,17.20
2022-10-18T08:03:52.178Z,17.10
2022-10-18T08:06:22.800Z,17.20
2022-10-18T08:08:53.894Z,17.20
2022-10-18T08:11:24.172Z,17.20
2022-10-18T08:13:54.156Z,17.10
2022-10-18T08:16:27.358Z,17.20
2022-10-18T08:18:58.301Z,17.20
2022-10-18T08:21:27.290Z,17.30
2022-10-18T08:23:57.427Z,17.30
2022-10-18T08:26:26.491Z,17.30
2022-10-18T08:29:17.427Z,17.20
2022-10-18T08:31:44.250Z,17.20
2022-10-18T08:34:15.991Z,17.10
2022-10-18T08:36:48.117Z,17.10
2022-10-18T08:39:18.460Z,17.00
2022-10-18T08:42:17.619Z,17.00
2022-10-18T08:44:48.825Z,17.00
2022-10-18T08:47:21.294Z,17.10
2022-10-18T08:49:52.111Z,17.10
2022-10-18T08:52:32.949Z,17.10
2022-10-18T08:55:08.283Z,17.30
2022-10-18T08:57:37.308Z,17.40
2022-10-18T09:00:16.737Z,17.30
2022-10-18T09:02:57.743Z,17.10
2022-10-18T09:05:33.144Z,17.10
2022-10-18T09:08:33.389Z,17.10
2022-10-18T09:11:17.350Z,17.00
2022-10-18T09:14:03.389Z,17.00
2022-10-18T09:16:41.193Z,16.90
2022-10-18T09:19:24.238Z,17.00
2022-10-18T09:21:55.057Z,17.00
2022-10-18T09:24:29.449Z,17.00
2022-10-18T09:27:07.199Z,17.00
2022-10-18T09:29:47.603Z,17.00
2022-10-18T09:32:26.929Z,17.10
2022-10-18T09:34:58.890Z,17.10
2022-10-18T09:37:34.527Z,17.20
2022-10-18T09:40:18.039Z,17.30
2022-10-18T09:42:57.025Z,17.40
2022-10-18T09:45:30.616Z,17.60
2022-10-18T09:48:07.254Z,17.90
2022-10-18T09:50:45.379Z,18.20
2022-10-18T09:53:25.156Z,18.50
2022-10-18T09:56:02.280Z,18.80
2022-10-18T09:58:42.893Z,19.10
2022-10-18T10:01:25.537Z,19.20
2022-10-18T10:03:54.896Z,19.50
2022-10-18T10:06:29.318Z,19.50
2022-10-18T10:09:11.629Z,19.40
2022-10-18T10:11:48.851Z,19.40
2022-10-18T10:14:26.168Z,19.50
2022-10-18T10:17:00.373Z,19.60
2022-10-18T10:19:35.146Z,19.70
2022-10-18T10:22:10.938Z,19.50
2022-10-18T10:24:52.273Z,19.20
2022-10-18T10:30:33.016Z,19.10
2022-10-18T10:33:36.982Z,19.50
2022-10-18T10:36:20.950Z,19.90
2022-10-18T10:39:08.383Z,20.60
2022-10-18T10:41:42.615Z,21.00
2022-10-18T10:44:26.456Z,21.20
2022-10-18T10:47:04.660Z,20.90
2022-10-18T10:49:49.050Z,20.50
2022-10-18T10:52:33.576Z,20.40
2022-10-18T10:55:30.818Z,20.70
2022-10-18T10:58:09.019Z,20.80
2022-10-18T11:00:59.084Z,20.60
2022-10-18T11:03:37.471Z,20.90
2022-10-18T11:06:41.450Z,21.10
2022-10-18T11:09:37.811Z,20.40
2022-10-18T11:12:38.670Z,19.60
2022-10-18T11:15:32.071Z,19.20
2022-10-18T11:18:36.564Z,19.20
2022-10-18T11:21:27.351Z,20.00
2022-10-18T11:24:20.152Z,21.60
2022-10-18T11:27:37.089Z,23.30
2022-10-18T11:30:42.620Z,25.00
2022-10-18T11:33:29.499Z,25.50
2022-10-18T11:36:13.864Z,25.40
2022-10-18T11:38:48.754Z,25.50
2022-10-18T11:41:32.842Z,25.50
2022-10-18T11:44:04.547Z,24.90
2022-10-18T11:46:46.687Z,24.00
2022-10-18T11:49:36.047Z,24.80
2022-10-18T11:52:15.035Z,25.20
2022-10-18T11:54:59.842Z,25.70
2022-10-18T11:57:42.089Z,26.10
2022-10-18T12:03:12.274Z,24.40
2022-10-18T12:05:42.870Z,23.90
2022-10-18T12:08:17.629Z,23.50
2022-10-18T12:11:04.570Z,24.30
2022-10-18T12:13:42.017Z,24.80
2022-10-18T12:16:12.451Z,25.60
2022-10-18T12:21:32.263Z,27.70
2022-10-18T12:24:05.638Z,27.50
2022-10-18T12:26:36.095Z,27.20
2022-10-18T12:29:14.641Z,27.30
2022-10-18T12:31:47.591Z,27.50
2022-10-18T12:34:35.921Z,27.90
2022-10-18T12:37:26.424Z,28.20
2022-10-18T12:40:18.871Z,27.50
2022-10-18T12:42:51.892Z,26.10
2022-10-18T12:45:30.309Z,24.60
2022-10-18T12:48:02.151Z,23.40
2022-10-18T12:50:36.136Z,22.40
2022-10-18T12:53:20.168Z,23.00
2022-10-18T12:55:52.757Z,24.10
2022-10-18T12:58:28.878Z,25.60
2022-10-18T13:01:02.674Z,26.60
2022-10-18T13:03:51.226Z,27.60
2022-10-18T13:06:19.678Z,28.60
2022-10-18T13:08:51.068Z,29.40
2022-10-18T13:11:33.435Z,29.60
2022-10-18T13:14:38.742Z,28.10
2022-10-18T13:17:28.223Z,28.40
2022-10-18T13:20:25.539Z,27.30
2022-10-18T13:23:04.816Z,26.90
2022-10-18T13:25:43.006Z,28.00
2022-10-18T13:28:27.568Z,28.10
2022-10-18T13:31:03.385Z,29.10
2022-10-18T13:33:38.770Z,29.70
2022-10-18T13:36:23.102Z,29.60
2022-10-18T13:39:05.040Z,30.30
2022-10-18T13:42:07.750Z,30.50
2022-10-18T13:44:42.748Z,28.50
2022-10-18T13:47:16.063Z,28.60
2022-10-18T13:50:21.213Z,27.90
2022-10-18T13:53:28.048Z,27.40
2022-10-18T13:56:10.747Z,27.30
2022-10-18T13:59:05.774Z,27.50
2022-10-18T14:02:02.492Z,26.60
2022-10-18T14:04:49.235Z,26.20
2022-10-18T14:07:23.803Z,25.50
2022-10-18T14:09:56.892Z,25.30
2022-10-18T14:12:32.431Z,25.60
2022-10-18T14:15:10.348Z,26.20
2022-10-18T14:17:46.731Z,26.70
2022-10-18T14:20:23.785Z,26.60
2022-10-18T14:23:06.819Z,25.20
2022-10-18T14:25:39.600Z,24.10
2022-10-18T14:28:13.344Z,23.60
2022-10-18T14:30:56.499Z,24.10
2022-10-18T14:33:29.904Z,25.60
2022-10-18T14:36:12.926Z,26.30
2022-10-18T14:38:50.758Z,24.50
2022-10-18T14:41:23.501Z,23.60
2022-10-18T14:43:53.513Z,23.20
2022-10-18T14:46:27.314Z,24.20
2022-10-18T14:49:01.157Z,25.30
2022-10-18T14:51:33.951Z,25.80
2022-10-18T14:54:03.336Z,25.90
2022-10-18T14:56:33.955Z,25.40
2022-10-18T14:59:07.161Z,25.40
2022-10-18T15:01:36.503Z,25.30
2022-10-18T15:04:12.455Z,25.80
2022-10-18T15:06:44.580Z,26.30
2022-10-18T15:09:14.286Z,26.90
2022-10-18T15:11:44.741Z,26.40
2022-10-18T15:14:18.254Z,25.70
2022-10-18T15:16:47.534Z,25.10
2022-10-18T15:19:35.660Z,24.20
2022-10-18T15:25:18.704Z,23.00
2022-10-18T15:27:53.008Z,21.90
2022-10-18T15:30:28.430Z,21.00
2022-10-18T15:32:58.823Z,20.30
2022-10-18T15:35:33.355Z,20.10
2022-10-18T15:38:03.854Z,20.00
2022-10-18T15:40:36.882Z,19.80
2022-10-18T15:43:08.405Z,19.70
2022-10-18T15:45:40.663Z,19.50
2022-10-18T15:48:25.236Z,19.40
2022-10-18T15:50:57.584Z,19.10
2022-10-18T15:53:51.580Z,19.00
2022-10-18T15:56:33.302Z,18.80
2022-10-18T15:59:05.361Z,18.80
2022-10-18T16:01:40.395Z,18.70
2022-10-18T16:04:15.700Z,18.60
2022-10-18T16:06:46.590Z,18.50
2022-10-18T16:09:21.405Z,18.30
2022-10-18T16:11:57.066Z,18.10
2022-10-18T16:14:30.181Z,18.00
2022-10-18T16:17:01.383Z,17.90
2022-10-18T16:19:30.456Z,17.70
2022-10-18T16:22:06.022Z,17.50
2022-10-18T16:24:37.108Z,17.40
2022-10-18T16:27:05.607Z,17.30
2022-10-18T16:29:34.733Z,16.90
2022-10-18T16:32:03.269Z,16.70
2022-10-18T16:34:32.297Z,16.20
2022-10-18T16:37:02.589Z,15.80
2022-10-18T16:39:35.026Z,15.60
2022-10-18T16:42:03.532Z,15.20
2022-10-18T16:44:34.837Z,14.90
2022-10-18T16:47:04.339Z,14.60
2022-10-18T16:49:33.051Z,14.40
2022-10-18T16:52:04.030Z,14.10
2022-10-18T16:54:35.998Z,13.90
2022-10-18T16:57:06.431Z,13.70
2022-10-18T16:59:35.423Z,13.50
2022-10-18T17:02:08.992Z,13.40
2022-10-18T17:04:37.745Z,13.30
2022-10-18T17:07:10.266Z,13.30
2022-10-18T17:09:39.290Z,13.10
2022-10-18T17:12:10.844Z,12.90
2022-10-18T17:14:39.813Z,12.80
2022-10-18T17:17:13.207Z,12.60
2022-10-18T17:19:41.885Z,12.40
2022-10-18T17:22:12.484Z,12.30
2022-10-18T17:24:44.281Z,12.20
2022-10-18T17:27:13.544Z,12.10
2022-10-18T17:29:42.441Z,11.90
2022-10-18T17:32:11.120Z,11.80
2022-10-18T17:37:08.948Z,11.70
2022-10-18T17:39:39.531Z,11.60
2022-10-18T17:42:08.287Z,11.40
2022-10-18T17:44:39.850Z,11.50
2022-10-18T17:47:09.027Z,11.40
2022-10-18T17:49:40.800Z,11.20
2022-10-18T17:52:09.455Z,11.20
2022-10-18T17:54:39.653Z,11.20
2022-10-18T17:57:08.471Z,11.20
2022-10-18T17:59:37.171Z,11.20
2022-10-18T18:02:06.054Z,11.10
2022-10-18T18:04:34.753Z,10.90
2022-10-18T18:07:04.593Z,11.00
2022-10-18T18:09:33.774Z,11.00
2022-10-18T18:12:03.856Z,10.90
2022-10-18T18:14:33.205Z,10.90
2022-10-18T18:17:02.935Z,10.90
2022-10-18T18:19:32.818Z,10.60
2022-10-18T18:22:01.876Z,10.40
2022-10-18T18:24:30.383Z,10.40
2022-10-18T18:26:59.508Z,10.40
2022-10-18T18:29:29.688Z,10.30
2022-10-18T18:31:59.506Z,10.30
2022-10-18T18:34:28.227Z,10.30
2022-10-18T18:36:57.196Z,10.10
2022-10-18T18:39:29.725Z,10.20
2022-10-18T18:41:58.370Z,10.00
2022-10-18T18:44:28.322Z,9.90
2022-10-18T18:46:58.703Z,9.70
2022-10-18T18:49:27.696Z,9.70
2022-10-18T18:51:56.410Z,9.50
2022-10-18T18:54:25.157Z,9.50
2022-10-18T18:56:53.702Z,9.30
2022-10-18T18:59:24.891Z,9.30
2022-10-18T19:01:55.017Z,9.30
2022-10-18T19:04:23.704Z,9.20
2022-10-18T19:06:52.670Z,9.20
2022-10-18T19:09:22.689Z,9.60
2022-10-18T19:11:53.873Z,9.50
2022-10-18T19:14:25.111Z,9.30
2022-10-18T19:16:58.937Z,9.10
2022-10-18T19:19:29.217Z,9.10
2022-10-18T19:22:02.066Z,9.00
2022-10-18T19:24:32.284Z,9.00
2022-10-18T19:27:03.408Z,8.90
2022-10-18T19:29:33.598Z,8.80
2022-10-18T19:32:05.708Z,8.70
2022-10-18T19:34:35.674Z,8.70
2022-10-18T19:37:04.366Z,8.70
2022-10-18T19:39:34.737Z,8.60
2022-10-18T19:42:06.921Z,8.60
2022-10-18T19:44:37.001Z,8.60
2022-10-18T19:47:07.882Z,8.50
2022-10-18T19:49:36.481Z,8.50
2022-10-18T19:52:05.023Z,8.50
2022-10-18T19:54:33.563Z,8.60
2022-10-18T19:57:02.234Z,8.60
2022-10-18T19:59:30.825Z,8.50
2022-10-18T20:02:01.710Z,8.40
2022-10-18T20:04:34.641Z,8.30
2022-10-18T20:07:03.931Z,8.30
2022-10-18T20:09:32.519Z,8.50
2022-10-18T20:12:01.095Z,8.40
2022-10-18T20:14:29.604Z,8.30
2022-10-18T20:16:57.950Z,8.20
2022-10-18T20:19:26.566Z,8.10
2022-10-18T20:21:58.072Z,8.10
2022-10-18T20:24:26.630Z,7.90
2022-10-18T20:26:55.272Z,7.90
2022-10-18T20:29:25.490Z,7.90
2022-10-18T20:32:08.820Z,7.90
2022-10-18T20:34:37.273Z,8.00
2022-10-18T20:37:07.090Z,8.00
2022-10-18T20:39:35.561Z,7.90
2022-10-18T20:42:04.038Z,7.80
2022-10-18T20:44:34.019Z,7.80
2022-10-18T20:47:02.482Z,7.80
2022-10-18T20:49:30.887Z,7.70
2022-10-18T20:51:59.315Z,7.60
2022-10-18T20:54:29.083Z,7.60
2022-10-18T20:56:57.516Z,7.70
2022-10-18T20:59:26.135Z,7.70
2022-10-18T21:01:54.540Z,7.70
2022-10-18T21:04:22.895Z,7.60
2022-10-18T21:06:51.149Z,7.60
2022-10-18T21:09:21.573Z,7.50
2022-10-18T21:11:53.943Z,7.40
2022-10-18T21:14:24.513Z,7.50
2022-10-18T21:16:54.245Z,7.40
2022-10-18T21:19:24.088Z,7.40
2022-10-18T21:21:54.587Z,7.30
2022-10-18T21:24:24.618Z,7.30
2022-10-18T21:26:54.815Z,7.20
2022-10-18T21:29:24.580Z,7.20
2022-10-18T21:31:56.000Z,7.10
2022-10-18T21:34:24.349Z,7.10
2022-10-18T21:36:52.831Z,7.20
2022-10-18T21:41:54.268Z,7.10
2022-10-18T21:44:22.783Z,7.00
2022-10-18T21:46:51.215Z,7.00
2022-10-18T21:49:19.786Z,6.90
2022-10-18T21:51:48.273Z,6.80
2022-10-18T21:54:17.672Z,6.90
2022-10-18T21:56:46.010Z,6.90
2022-10-18T21:59:16.151Z,6.90
2022-10-18T22:01:45.761Z,6.80
2022-10-18T22:04:21.799Z,6.80
2022-10-18T22:06:50.732Z,6.80
2022-10-18T22:09:19.350Z,6.80
2022-10-18T22:11:50.552Z,6.80
2022-10-18T22:14:20.462Z,6.70
2022-10-18T22:16:48.809Z,6.60
2022-10-18T22:19:17.233Z,6.60
2022-10-18T22:21:45.808Z,6.60
2022-10-18T22:24:14.282Z,6.50
2022-10-18T22:26:44.493Z,6.40
2022-10-18T22:29:14.736Z,6.40
2022-10-18T22:31:46.280Z,6.40
2022-10-18T22:34:16.491Z,6.40
2022-10-18T22:36:45.439Z,6.40
2022-10-18T22:39:15.414Z,6.50
2022-10-18T22:41:44.527Z,6.40
2022-10-18T22:44:13.830Z,6.40
2022-10-18T22:46:44.113Z,6.30
2022-10-18T22:49:12.649Z,6.30
2022-10-18T22:51:41.377Z,6.30
2022-10-18T22:54:09.910Z,6.40
2022-10-18T22:56:38.393Z,6.40
2022-10-18T22:59:07.002Z,6.30
2022-10-18T23:01:35.651Z,6.20
2022-10-18T23:04:06.112Z,6.20
2022-10-18T23:06:36.383Z,6.20
2022-10-18T23:09:07.873Z,6.20
2022-10-18T23:11:37.567Z,6.10
2022-10-18T23:14:07.802Z,6.10
2022-10-18T23:16:36.615Z,6.10
2022-10-18T23:19:06.920Z,6.00
2022-10-18T23:21:36.130Z,6.00
2022-10-18T23:24:04.847Z,6.10
2022-10-18T23:26:33.595Z,6.30
2022-10-18T23:29:02.030Z,6.20
2022-10-18T23:31:36.362Z,6.10
2022-10-18T23:34:07.170Z,6.00
2022-10-18T23:36:35.935Z,6.00
2022-10-18T23:39:06.303Z,6.00
2022-10-18T23:41:34.829Z,6.00
2022-10-18T23:44:03.606Z,5.90
2022-10-18T23:46:31.791Z,6.00
2022-10-18T23:49:00.152Z,5.90
2022-10-18T23:51:30.063Z,5.90
2022-10-18T23:53:58.474Z,5.80
2022-10-18T23:56:26.974Z,5.80
2022-10-18T23:58:55.406Z,5.80
